Time,TemperatureF,DewpointF,PressureIn,WindDirection,WindDirectionDegrees,WindSpeedMPH,WindSpeedGustMPH,Humidity,HourlyPrecipIn,Conditions,Clouds,dailyrainin,SoftwareType,DateUTC
2013-06-12 00:00:00,71.4,61.1,29.68,WNW,293,0.0,4.4,70,0.00,,,0.00,heavyweathercustom,2013-06-12 04:00:00,
2013-06-12 00:10:00,71.4,61.1,29.68,NW,315,0.0,4.4,70,0.00,,,0.00,heavyweathercustom,2013-06-12 04:10:00,
2013-06-12 00:20:00,71.2,60.9,29.68,WSW,248,0.0,4.4,70,0.00,,,0.00,heavyweathercustom,2013-06-12 04:20:00,
2013-06-12 00:30:00,71.2,60.9,29.69,SE,135,0.0,6.8,70,0.00,,,0.00,heavyweathercustom,2013-06-12 04:30:00,
2013-06-12 00:40:00,71.2,60.5,29.69,West,270,0.0,13.8,69,0.00,,,0.00,heavyweathercustom,2013-06-12 04:40:00,
2013-06-12 00:50:00,71.1,60.4,29.69,SSW,203,0.0,13.8,69,0.00,,,0.00,heavyweathercustom,2013-06-12 04:50:00,
2013-06-12 01:00:00,70.9,60.6,29.68,WNW,293,0.0,13.8,70,0.00,,,0.00,heavyweathercustom,2013-06-12 05:00:00,
2013-06-12 01:10:00,70.9,60.6,29.68,SE,135,3.3,13.8,70,0.00,,,0.00,heavyweathercustom,2013-06-12 05:10:00,
2013-06-12 01:20:00,70.7,60.4,29.68,WNW,293,0.0,4.1,70,0.00,,,0.00,heavyweathercustom,2013-06-12 05:20:00,
2013-06-12 01:30:00,70.5,60.6,29.68,NW,315,0.0,4.1,71,0.00,,,0.00,heavyweathercustom,2013-06-12 05:30:00,
2013-06-12 01:40:00,70.5,60.6,29.68,WNW,293,0.0,3.8,71,0.00,,,0.00,heavyweathercustom,2013-06-12 05:40:00,
2013-06-12 01:50:00,70.5,60.6,29.68,NW,315,0.0,3.8,71,0.00,,,0.00,heavyweathercustom,2013-06-12 05:50:00,
2013-06-12 02:00:00,70.7,61.2,29.67,South,180,0.0,3.8,72,0.00,,,0.00,heavyweathercustom,2013-06-12 06:00:00,
2013-06-12 02:10:00,70.7,61.2,29.67,NW,315,0.0,3.8,72,0.00,,,0.00,heavyweathercustom,2013-06-12 06:10:00,
2013-06-12 02:20:00,70.9,61.8,29.67,West,270,0.0,7.7,73,0.00,,,0.00,heavyweathercustom,2013-06-12 06:20:00,
2013-06-12 02:30:00,70.9,61.8,29.67,West,270,0.0,7.7,73,0.00,,,0.00,heavyweathercustom,2013-06-12 06:30:00,
2013-06-12 02:40:00,70.7,62.0,29.67,WNW,293,0.0,7.7,74,0.00,,,0.00,heavyweathercustom,2013-06-12 06:40:00,
2013-06-12 02:50:00,70.7,62.4,29.67,WNW,293,0.0,7.7,75,0.00,,,0.00,heavyweathercustom,2013-06-12 06:50:00,
2013-06-12 03:00:00,70.7,62.4,29.67,NW,315,0.0,1.7,75,0.00,,,0.00,heavyweathercustom,2013-06-12 07:00:00,
2013-06-12 03:10:00,70.5,62.2,29.67,SSE,158,0.0,1.7,75,0.00,,,0.00,heavyweathercustom,2013-06-12 07:10:00,
2013-06-12 03:20:00,70.3,62.0,29.67,West,270,0.0,4.7,75,0.00,,,0.00,heavyweathercustom,2013-06-12 07:20:00,
2013-06-12 03:30:00,70.2,61.9,29.67,SSE,158,0.0,4.7,75,0.00,,,0.00,heavyweathercustom,2013-06-12 07:30:00,
2013-06-12 03:40:00,70.0,61.7,29.67,SE,135,0.0,4.1,75,0.00,,,0.00,heavyweathercustom,2013-06-12 07:40:00,
2013-06-12 03:50:00,69.8,61.9,29.68,WNW,293,0.0,4.1,76,0.00,,,0.00,heavyweathercustom,2013-06-12 07:50:00,
2013-06-12 04:00:00,69.6,61.7,29.68,SSE,158,0.0,4.1,76,0.00,,,0.00,heavyweathercustom,2013-06-12 08:00:00,
2013-06-12 04:10:00,69.4,61.5,29.68,South,180,0.0,10.4,76,0.00,,,0.00,heavyweathercustom,2013-06-12 08:10:00,
2013-06-12 04:20:00,69.4,61.5,29.69,SE,135,0.0,10.4,76,0.00,,,0.00,heavyweathercustom,2013-06-12 08:20:00,
2013-06-12 04:40:00,69.3,60.6,29.70,SE,135,0.0,10.4,74,0.00,,,0.00,heavyweathercustom,2013-06-12 08:40:00,
2013-06-12 04:50:00,69.1,60.1,29.70,ESE,113,3.3,10.4,73,0.00,,,0.00,heavyweathercustom,2013-06-12 08:50:00,
2013-06-12 05:00:00,69.1,58.9,29.70,SW,225,3.3,12.2,70,0.00,,,0.00,heavyweathercustom,2013-06-12 09:00:00,
2013-06-12 05:10:00,68.7,58.1,29.70,South,180,0.0,12.2,69,0.00,,,0.00,heavyweathercustom,2013-06-12 09:10:00,
2013-06-12 05:20:00,68.5,57.1,29.70,South,180,3.3,15.4,67,0.00,,,0.00,heavyweathercustom,2013-06-12 09:20:00,
2013-06-12 05:30:00,68.2,56.4,29.71,SE,135,3.3,14.7,66,0.00,,,0.00,heavyweathercustom,2013-06-12 09:30:00,
2013-06-12 05:40:00,67.8,56.0,29.71,ESE,113,10.1,14.7,66,0.00,,,0.00,heavyweathercustom,2013-06-12 09:40:00,
2013-06-12 05:50:00,67.6,55.8,29.71,SE,135,6.8,14.7,66,0.00,,,0.00,heavyweathercustom,2013-06-12 09:50:00,
2013-06-12 06:00:00,67.3,55.5,29.71,ESE,113,3.3,22.1,66,0.00,,,0.00,heavyweathercustom,2013-06-12 10:00:00,
2013-06-12 06:10:00,67.3,55.5,29.72,SSE,158,0.0,22.1,66,0.00,,,0.00,heavyweathercustom,2013-06-12 10:10:00,
2013-06-12 06:20:00,67.1,55.4,29.72,NW,315,0.0,22.1,66,0.00,,,0.00,heavyweathercustom,2013-06-12 10:20:00,
2013-06-12 06:30:00,67.3,55.5,29.72,SE,135,0.0,22.1,66,0.00,,,0.00,heavyweathercustom,2013-06-12 10:30:00,
2013-06-12 06:40:00,67.5,55.3,29.72,SSW,203,0.0,13.1,65,0.00,,,0.00,heavyweathercustom,2013-06-12 10:40:00,
2013-06-12 06:50:00,67.6,55.4,29.73,SE,135,0.0,13.1,65,0.00,,,0.00,heavyweathercustom,2013-06-12 10:50:00,
2013-06-12 07:00:00,67.8,55.6,29.73,SE,135,3.3,14.4,65,0.08,,,0.08,heavyweathercustom,2013-06-12 11:00:00,
2013-06-12 07:20:00,68.2,55.5,29.74,ESE,113,0.0,14.4,64,0.08,,,0.08,heavyweathercustom,2013-06-12 11:20:00,
2013-06-12 07:30:00,67.8,55.2,29.74,South,180,0.0,14.4,64,0.08,,,0.08,heavyweathercustom,2013-06-12 11:30:00,
2013-06-12 07:50:00,69.1,56.0,29.73,WNW,293,0.0,14.4,63,0.08,,,0.08,heavyweathercustom,2013-06-12 11:50:00,
2013-06-12 08:00:00,68.9,55.3,29.75,SSW,203,0.0,27.1,62,0.00,,,0.08,heavyweathercustom,2013-06-12 12:00:00,
2013-06-12 08:10:00,69.4,55.8,29.75,SE,135,3.3,27.1,62,0.00,,,0.08,heavyweathercustom,2013-06-12 12:10:00,
2013-06-12 08:30:00,69.3,55.3,29.75,SE,135,0.0,25.1,61,0.00,,,0.08,heavyweathercustom,2013-06-12 12:30:00,
2013-06-12 08:40:00,69.4,55.4,29.75,SSE,158,13.4,25.1,61,0.00,,,0.08,heavyweathercustom,2013-06-12 12:40:00,
2013-06-12 08:50:00,69.6,55.5,29.74,SE,135,0.0,25.1,61,0.00,,,0.08,heavyweathercustom,2013-06-12 12:50:00,
2013-06-12 09:00:00,70.0,55.9,29.75,SSW,203,10.1,25.1,61,0.00,,,0.08,heavyweathercustom,2013-06-12 13:00:00,
2013-06-12 09:10:00,70.2,55.7,29.75,SE,135,0.0,25.1,60,0.00,,,0.08,heavyweathercustom,2013-06-12 13:10:00,
2013-06-12 09:20:00,70.3,55.3,29.75,SE,135,0.0,25.1,59,0.00,,,0.08,heavyweathercustom,2013-06-12 13:20:00,
2013-06-12 09:30:00,70.3,55.3,29.75,SW,225,0.0,22.1,59,0.00,,,0.08,heavyweathercustom,2013-06-12 13:30:00,
2013-06-12 09:40:00,70.5,55.9,29.75,West,270,0.0,22.1,60,0.00,,,0.08,heavyweathercustom,2013-06-12 13:40:00,
2013-06-12 09:50:00,71.2,56.1,29.75,SE,135,3.3,22.1,59,0.00,,,0.08,heavyweathercustom,2013-06-12 13:50:00,
2013-06-12 10:00:00,70.9,55.8,29.75,SSE,158,0.0,24.6,59,0.00,,,0.08,heavyweathercustom,2013-06-12 14:00:00,
2013-06-12 10:10:00,71.2,55.7,29.75,SSW,203,0.0,24.6,58,0.00,,,0.08,heavyweathercustom,2013-06-12 14:10:00,
2013-06-12 10:20:00,70.9,55.8,29.75,SW,225,0.0,24.6,59,0.00,,,0.08,heavyweathercustom,2013-06-12 14:20:00,
2013-06-12 10:30:00,71.4,56.3,29.75,SSE,158,3.3,24.6,59,0.00,,,0.08,heavyweathercustom,2013-06-12 14:30:00,
2013-06-12 10:40:00,71.8,56.2,29.76,SW,225,0.0,24.6,58,0.00,,,0.08,heavyweathercustom,2013-06-12 14:40:00,
2013-06-12 10:50:00,72.5,56.9,29.76,West,270,0.0,12.8,58,0.00,,,0.08,heavyweathercustom,2013-06-12 14:50:00,
2013-06-12 11:00:00,72.9,56.8,29.76,SSW,203,3.3,12.8,57,0.00,,,0.08,heavyweathercustom,2013-06-12 15:00:00,
2013-06-12 11:10:00,73.0,56.9,29.76,East,90,6.8,12.8,57,0.00,,,0.08,heavyweathercustom,2013-06-12 15:10:00,
2013-06-12 11:20:00,72.3,56.2,29.76,SE,135,3.3,14.4,57,0.00,,,0.08,heavyweathercustom,2013-06-12 15:20:00,
2013-06-12 11:40:00,72.1,56.5,29.75,WNW,293,6.8,14.4,58,0.00,,,0.08,heavyweathercustom,2013-06-12 15:40:00,
2013-06-12 11:50:00,72.1,56.5,29.75,SE,135,0.0,12.8,58,0.00,,,0.08,heavyweathercustom,2013-06-12 15:50:00,
2013-06-12 12:00:00,72.3,56.7,29.77,WNW,293,3.3,12.8,58,0.00,,,0.08,heavyweathercustom,2013-06-12 16:00:00,
2013-06-12 12:10:00,72.7,57.1,29.77,SSE,158,0.0,12.8,58,0.00,,,0.08,heavyweathercustom,2013-06-12 16:10:00,
2013-06-12 12:20:00,72.7,56.1,29.77,SSE,158,0.0,12.8,56,0.00,,,0.08,heavyweathercustom,2013-06-12 16:20:00,
2013-06-12 12:30:00,72.9,56.8,29.77,SSE,158,0.0,16.2,57,0.00,,,0.08,heavyweathercustom,2013-06-12 16:30:00,
2013-06-12 12:40:00,73.2,56.5,29.76,West,270,0.0,11.7,56,0.00,,,0.08,heavyweathercustom,2013-06-12 16:40:00,
2013-06-12 12:50:00,73.6,56.9,29.76,SE,135,0.0,11.7,56,0.00,,,0.08,heavyweathercustom,2013-06-12 16:50:00,
2013-06-12 13:00:00,73.8,57.1,29.76,SSE,158,10.1,11.7,56,0.00,,,0.08,heavyweathercustom,2013-06-12 17:00:00,
2013-06-12 13:10:00,73.9,57.2,29.77,SE,135,3.3,18.2,56,0.00,,,0.08,heavyweathercustom,2013-06-12 17:10:00,
2013-06-12 13:20:00,74.3,57.1,29.77,ESE,113,0.0,18.2,55,0.00,,,0.08,heavyweathercustom,2013-06-12 17:20:00,
2013-06-12 13:30:00,74.3,57.1,29.77,SE,135,0.0,18.2,55,0.00,,,0.08,heavyweathercustom,2013-06-12 17:30:00,
2013-06-12 13:40:00,74.3,56.6,29.77,SSE,158,3.3,13.4,54,0.00,,,0.08,heavyweathercustom,2013-06-12 17:40:00,
2013-06-12 13:50:00,74.3,56.6,29.77,ENE,68,0.0,13.4,54,0.00,,,0.08,heavyweathercustom,2013-06-12 17:50:00,
2013-06-12 14:00:00,74.5,56.7,29.77,SE,135,6.8,13.4,54,0.00,,,0.08,heavyweathercustom,2013-06-12 18:00:00,
2013-06-12 14:10:00,74.5,56.7,29.77,SE,135,3.3,13.4,54,0.00,,,0.08,heavyweathercustom,2013-06-12 18:10:00,
2013-06-12 14:20:00,74.8,57.0,29.78,SE,135,0.0,13.4,54,0.00,,,0.08,heavyweathercustom,2013-06-12 18:20:00,
2013-06-12 14:30:00,75.0,57.2,29.78,ESE,113,0.0,13.4,54,0.00,,,0.08,heavyweathercustom,2013-06-12 18:30:00,
2013-06-12 14:40:00,74.8,57.0,29.78,SE,135,6.8,14.1,54,0.00,,,0.08,heavyweathercustom,2013-06-12 18:40:00,
2013-06-12 14:50:00,74.3,56.6,29.77,SSW,203,0.0,14.1,54,0.00,,,0.08,heavyweathercustom,2013-06-12 18:50:00,
2013-06-12 15:00:00,74.1,56.4,29.77,NNW,338,0.0,14.1,54,0.00,,,0.08,heavyweathercustom,2013-06-12 19:00:00,
2013-06-12 15:10:00,74.5,56.7,29.77,SSE,158,0.0,15.4,54,0.00,,,0.08,heavyweathercustom,2013-06-12 19:10:00,
2013-06-12 15:20:00,74.3,56.6,29.77,SE,135,6.8,15.4,54,0.00,,,0.08,heavyweathercustom,2013-06-12 19:20:00,
2013-06-12 15:30:00,74.1,56.4,29.77,WNW,293,0.0,22.1,54,0.00,,,0.08,heavyweathercustom,2013-06-12 19:30:00,
2013-06-12 15:40:00,74.1,55.9,29.77,ESE,113,3.3,22.1,53,0.00,,,0.08,heavyweathercustom,2013-06-12 19:40:00,
2013-06-12 15:50:00,74.3,56.6,29.77,SSW,203,0.0,22.1,54,0.00,,,0.08,heavyweathercustom,2013-06-12 19:50:00,
2013-06-12 16:00:00,74.3,56.0,29.77,SE,135,3.3,15.3,53,0.00,,,0.08,heavyweathercustom,2013-06-12 20:00:00,
2013-06-12 16:10:00,74.1,56.4,29.77,SE,135,6.8,15.3,54,0.00,,,0.08,heavyweathercustom,2013-06-12 20:10:00,
2013-06-12 16:20:00,73.9,55.7,29.77,NW,315,10.1,15.3,53,0.00,,,0.08,heavyweathercustom,2013-06-12 20:20:00,
2013-06-12 16:30:00,74.1,55.9,29.77,North,0,6.8,15.3,53,0.00,,,0.08,heavyweathercustom,2013-06-12 20:30:00,
2013-06-12 16:40:00,74.1,55.9,29.77,SSE,158,0.0,15.3,53,0.00,,,0.08,heavyweathercustom,2013-06-12 20:40:00,
2013-06-12 16:50:00,74.3,55.5,29.77,NW,315,6.8,15.3,52,0.00,,,0.08,heavyweathercustom,2013-06-12 20:50:00,
2013-06-12 17:00:00,74.5,55.7,29.78,SE,135,0.0,19.0,52,0.00,,,0.08,heavyweathercustom,2013-06-12 21:00:00,
2013-06-12 17:10:00,74.5,55.7,29.79,NE,45,0.0,14.1,52,0.00,,,0.08,heavyweathercustom,2013-06-12 21:10:00,
2013-06-12 17:20:00,74.5,56.2,29.79,SE,135,0.0,14.1,53,0.00,,,0.08,heavyweathercustom,2013-06-12 21:20:00,
2013-06-12 17:30:00,75.0,56.7,29.78,SSE,158,0.0,14.1,53,0.00,,,0.08,heavyweathercustom,2013-06-12 21:30:00,
2013-06-12 17:40:00,75.0,56.2,29.78,SE,135,6.8,14.1,52,0.00,,,0.08,heavyweathercustom,2013-06-12 21:40:00,
2013-06-12 17:50:00,75.0,56.2,29.78,SW,225,0.0,14.1,52,0.00,,,0.08,heavyweathercustom,2013-06-12 21:50:00,
2013-06-12 18:00:00,75.0,56.7,29.78,SSE,158,0.0,15.7,53,0.00,,,0.08,heavyweathercustom,2013-06-12 22:00:00,
2013-06-12 18:10:00,74.8,56.5,29.78,SE,135,0.0,15.7,53,0.00,,,0.08,heavyweathercustom,2013-06-12 22:10:00,
2013-06-12 18:20:00,75.0,56.7,29.78,SSE,158,0.0,15.7,53,0.00,,,0.08,heavyweathercustom,2013-06-12 22:20:00,
2013-06-12 18:30:00,75.0,56.2,29.78,West,270,3.3,15.7,52,0.00,,,0.08,heavyweathercustom,2013-06-12 22:30:00,
2013-06-12 18:40:00,75.2,56.3,29.78,SSE,158,3.3,11.4,52,0.00,,,0.08,heavyweathercustom,2013-06-12 22:40:00,
2013-06-12 18:50:00,75.0,56.2,29.78,SE,135,3.3,11.4,52,0.00,,,0.08,heavyweathercustom,2013-06-12 22:50:00,
2013-06-12 19:00:00,75.0,56.7,29.78,WNW,293,0.0,11.4,53,0.00,,,0.08,heavyweathercustom,2013-06-12 23:00:00,
2013-06-12 19:10:00,75.0,56.7,29.79,SSE,158,0.0,13.1,53,0.00,,,0.08,heavyweathercustom,2013-06-12 23:10:00,
2013-06-12 19:20:00,75.0,56.7,29.80,SSE,158,0.0,13.1,53,0.00,,,0.08,heavyweathercustom,2013-06-12 23:20:00,
2013-06-12 19:30:00,75.0,56.2,29.80,SSE,158,3.3,18.8,52,0.00,,,0.08,heavyweathercustom,2013-06-12 23:30:00,
2013-06-12 19:40:00,75.0,56.2,29.80,NNW,338,3.3,18.8,52,0.00,,,0.08,heavyweathercustom,2013-06-12 23:40:00,
2013-06-12 19:50:00,74.8,56.5,29.80,ESE,113,0.0,18.8,53,0.00,,,0.08,heavyweathercustom,2013-06-12 23:50:00,
2013-06-12 20:00:00,74.5,56.2,29.80,SSE,158,0.0,25.1,53,0.00,,,0.08,heavyweathercustom,2013-06-13 00:00:00,
2013-06-12 20:10:00,74.1,56.4,29.80,SE,135,0.0,25.1,54,0.00,,,0.08,heavyweathercustom,2013-06-13 00:10:00,
2013-06-12 20:20:00,74.1,56.4,29.81,NW,315,6.8,25.1,54,0.00,,,0.08,heavyweathercustom,2013-06-13 00:20:00,
2013-06-12 20:30:00,73.9,56.2,29.81,WSW,248,0.0,25.1,54,0.00,,,0.08,heavyweathercustom,2013-06-13 00:30:00,
2013-06-12 20:40:00,73.8,56.6,29.81,West,270,0.0,7.7,55,0.00,,,0.08,heavyweathercustom,2013-06-13 00:40:00,
2013-06-12 20:50:00,73.6,56.4,29.81,SSE,158,0.0,7.7,55,0.00,,,0.08,heavyweathercustom,2013-06-13 00:50:00,
2013-06-12 21:00:00,73.2,56.0,29.81,SE,135,3.3,7.7,55,0.00,,,0.08,heavyweathercustom,2013-06-13 01:00:00,
2013-06-12 21:10:00,73.4,56.2,29.81,SE,135,0.0,7.7,55,0.00,,,0.08,heavyweathercustom,2013-06-13 01:10:00,
2013-06-12 21:20:00,73.4,56.2,29.81,SSE,158,0.0,6.8,55,0.00,,,0.08,heavyweathercustom,2013-06-13 01:20:00,
2013-06-12 21:30:00,73.4,56.2,29.80,SE,135,0.0,13.4,55,0.00,,,0.08,heavyweathercustom,2013-06-13 01:30:00,
2013-06-12 21:40:00,73.2,56.0,29.81,SE,135,0.0,13.4,55,0.00,,,0.08,heavyweathercustom,2013-06-13 01:40:00,
2013-06-12 21:50:00,73.0,56.4,29.81,SE,135,6.8,13.4,56,0.00,,,0.08,heavyweathercustom,2013-06-13 01:50:00,
2013-06-12 22:00:00,73.2,56.5,29.81,SE,135,0.0,13.4,56,0.00,,,0.08,heavyweathercustom,2013-06-13 02:00:00,
2013-06-12 22:20:00,72.9,56.3,29.81,WNW,293,0.0,13.4,56,0.00,,,0.08,heavyweathercustom,2013-06-13 02:20:00,
2013-06-12 22:30:00,72.9,56.3,29.81,NW,315,0.0,24.6,56,0.00,,,0.08,heavyweathercustom,2013-06-13 02:30:00,
2013-06-12 22:40:00,72.5,56.4,29.81,SSE,158,0.0,24.6,57,0.00,,,0.08,heavyweathercustom,2013-06-13 02:40:00,
2013-06-12 22:50:00,72.3,56.2,29.81,SSE,158,0.0,24.6,57,0.00,,,0.08,heavyweathercustom,2013-06-13 02:50:00,
2013-06-12 23:00:00,72.3,56.2,29.81,SE,135,0.0,24.6,57,0.00,,,0.08,heavyweathercustom,2013-06-13 03:00:00,
2013-06-12 23:10:00,72.1,56.0,29.81,SE,135,0.0,24.6,57,0.00,,,0.08,heavyweathercustom,2013-06-13 03:10:00,
2013-06-12 23:20:00,72.3,55.7,29.80,SSW,203,0.0,7.7,56,0.00,,,0.08,heavyweathercustom,2013-06-13 03:20:00,
2013-06-12 23:30:00,72.3,55.7,29.79,SE,135,0.0,3.8,56,0.00,,,0.08,heavyweathercustom,2013-06-13 03:30:00,
2013-06-12 23:40:00,72.3,55.7,29.79,WSW,248,0.0,3.8,56,0.00,,,0.08,heavyweathercustom,2013-06-13 03:40:00,
2013-06-12 23:50:00,72.1,56.0,29.79,WSW,248,0.0,3.8,57,0.00,,,0.08,heavyweathercustom,2013-06-13 03:50:00,